sensor_id;sensor_type;location;lat;lon;timestamp;P1;durP1;ratioP1;P2;durP2;ratioP2
29934;SDS011;19905;53.370;-6.314;2023-04-24T00:02:24;27.95;;;15.57;;
29934;SDS011;19905;53.370;-6.314;2023-04-24T00:04:53;21.13;;;13.25;;
29934;SDS011;19905;53.370;-6.314;2023-04-24T00:07:22;21.00;;;13.40;;
29934;SDS011;19905;53.370;-6.314;2023-04-24T00:09:52;22.65;;;12.27;;
29934;SDS011;19905;53.370;-6.314;2023-04-24T00:12:21;19.30;;;11.50;;
29934;SDS011;19905;53.370;-6.314;2023-04-24T00:14:49;19.80;;;10.82;;
29934;SDS011;19905;53.370;-6.314;2023-04-24T00:17:18;18.38;;;10.07;;
29934;SDS011;19905;53.370;-6.314;2023-04-24T00:19:48;16.55;;;9.85;;
29934;SDS011;19905;53.370;-6.314;2023-04-24T00:22:18;15.77;;;9.02;;
29934;SDS011;19905;53.370;-6.314;2023-04-24T00:24:47;15.80;;;8.52;;
29934;SDS011;19905;53.370;-6.314;2023-04-24T00:27:17;16.27;;;8.98;;
29934;SDS011;19905;53.370;-6.314;2023-04-24T00:29:46;14.48;;;8.35;;
29934;SDS011;19905;53.370;-6.314;2023-04-24T00:32:14;19.10;;;7.97;;
29934;SDS011;19905;53.370;-6.314;2023-04-24T00:34:44;16.58;;;8.43;;
29934;SDS011;19905;53.370;-6.314;2023-04-24T00:37:13;17.90;;;7.80;;
29934;SDS011;19905;53.370;-6.314;2023-04-24T00:39:41;19.20;;;7.47;;
29934;SDS011;19905;53.370;-6.314;2023-04-24T00:42:10;19.77;;;7.97;;
29934;SDS011;19905;53.370;-6.314;2023-04-24T00:44:41;16.35;;;7.63;;
29934;SDS011;19905;53.370;-6.314;2023-04-24T00:47:09;19.65;;;7.80;;
29934;SDS011;19905;53.370;-6.314;2023-04-24T00:49:40;15.98;;;7.47;;
29934;SDS011;19905;53.370;-6.314;2023-04-24T00:52:10;18.40;;;7.72;;
29934;SDS011;19905;53.370;-6.314;2023-04-24T00:54:40;17.05;;;7.95;;
29934;SDS011;19905;53.370;-6.314;2023-04-24T00:57:08;16.80;;;7.32;;
29934;SDS011;19905;53.370;-6.314;2023-04-24T00:59:37;17.55;;;7.00;;
29934;SDS011;19905;53.370;-6.314;2023-04-24T01:02:09;17.10;;;7.72;;
29934;SDS011;19905;53.370;-6.314;2023-04-24T01:04:41;13.57;;;7.25;;
29934;SDS011;19905;53.370;-6.314;2023-04-24T01:07:11;19.98;;;7.72;;
29934;SDS011;19905;53.370;-6.314;2023-04-24T01:09:39;19.25;;;7.05;;
29934;SDS011;19905;53.370;-6.314;2023-04-24T01:12:10;21.70;;;7.13;;
29934;SDS011;19905;53.370;-6.314;2023-04-24T01:14:40;17.70;;;7.55;;
29934;SDS011;19905;53.370;-6.314;2023-04-24T01:17:13;17.02;;;6.57;;
29934;SDS011;19905;53.370;-6.314;2023-04-24T01:19:41;15.27;;;7.05;;
29934;SDS011;19905;53.370;-6.314;2023-04-24T01:22:14;15.05;;;6.90;;
29934;SDS011;19905;53.370;-6.314;2023-04-24T01:24:45;17.95;;;7.10;;
29934;SDS011;19905;53.370;-6.314;2023-04-24T01:27:13;14.80;;;6.20;;
29934;SDS011;19905;53.370;-6.314;2023-04-24T01:29:42;13.32;;;6.60;;
29934;SDS011;19905;53.370;-6.314;2023-04-24T01:32:11;16.00;;;6.88;;
29934;SDS011;19905;53.370;-6.314;2023-04-24T01:34:40;17.85;;;6.60;;
29934;SDS011;19905;53.370;-6.314;2023-04-24T01:37:09;16.23;;;6.65;;
29934;SDS011;19905;53.370;-6.314;2023-04-24T01:39:39;16.52;;;6.90;;
29934;SDS011;19905;53.370;-6.314;2023-04-24T01:42:08;15.50;;;6.80;;
29934;SDS011;19905;53.370;-6.314;2023-04-24T01:44:37;18.08;;;6.47;;
29934;SDS011;19905;53.370;-6.314;2023-04-24T01:47:06;23.17;;;6.47;;
29934;SDS011;19905;53.370;-6.314;2023-04-24T01:49:36;16.67;;;6.30;;
29934;SDS011;19905;53.370;-6.314;2023-04-24T02:02:39;16.15;;;5.97;;
29934;SDS011;19905;53.370;-6.314;2023-04-24T02:05:11;18.80;;;6.50;;
29934;SDS011;19905;53.370;-6.314;2023-04-24T02:07:39;17.45;;;6.00;;
29934;SDS011;19905;53.370;-6.314;2023-04-24T02:10:09;17.40;;;6.80;;
29934;SDS011;19905;53.370;-6.314;2023-04-24T02:12:37;15.65;;;6.20;;
29934;SDS011;19905;53.370;-6.314;2023-04-24T02:15:08;20.67;;;6.25;;
29934;SDS011;19905;53.370;-6.314;2023-04-24T02:17:40;17.42;;;7.10;;
29934;SDS011;19905;53.370;-6.314;2023-04-24T02:20:08;19.17;;;7.03;;
29934;SDS011;19905;53.370;-6.314;2023-04-24T02:22:37;19.92;;;6.97;;
29934;SDS011;19905;53.370;-6.314;2023-04-24T02:25:06;21.23;;;6.97;;
29934;SDS011;19905;53.370;-6.314;2023-04-24T02:27:35;15.18;;;7.10;;
29934;SDS011;19905;53.370;-6.314;2023-04-24T02:30:03;16.75;;;6.82;;
29934;SDS011;19905;53.370;-6.314;2023-04-24T02:32:34;16.38;;;7.50;;
29934;SDS011;19905;53.370;-6.314;2023-04-24T02:35:05;18.45;;;7.20;;
29934;SDS011;19905;53.370;-6.314;2023-04-24T02:37:35;17.42;;;7.30;;
29934;SDS011;19905;53.370;-6.314;2023-04-24T02:40:03;17.20;;;6.78;;
29934;SDS011;19905;53.370;-6.314;2023-04-24T02:42:33;14.85;;;6.78;;
29934;SDS011;19905;53.370;-6.314;2023-04-24T02:45:02;14.85;;;6.90;;
29934;SDS011;19905;53.370;-6.314;2023-04-24T02:47:32;15.55;;;6.78;;
29934;SDS011;19905;53.370;-6.314;2023-04-24T02:50:02;17.10;;;7.20;;
29934;SDS011;19905;53.370;-6.314;2023-04-24T02:52:33;16.08;;;6.55;;
29934;SDS011;19905;53.370;-6.314;2023-04-24T02:55:01;14.75;;;7.05;;
29934;SDS011;19905;53.370;-6.314;2023-04-24T02:57:30;16.13;;;6.30;;
29934;SDS011;19905;53.370;-6.314;2023-04-24T02:59:58;11.98;;;5.47;;
29934;SDS011;19905;53.370;-6.314;2023-04-24T03:02:27;15.18;;;6.13;;
29934;SDS011;19905;53.370;-6.314;2023-04-24T03:04:56;19.10;;;6.50;;
29934;SDS011;19905;53.370;-6.314;2023-04-24T03:07:26;18.00;;;6.53;;
29934;SDS011;19905;53.370;-6.314;2023-04-24T03:09:55;18.48;;;6.45;;
29934;SDS011;19905;53.370;-6.314;2023-04-24T03:12:25;16.83;;;5.95;;
29934;SDS011;19905;53.370;-6.314;2023-04-24T03:14:53;15.82;;;7.00;;
29934;SDS011;19905;53.370;-6.314;2023-04-24T03:17:24;16.27;;;6.45;;
29934;SDS011;19905;53.370;-6.314;2023-04-24T03:19:52;17.75;;;6.53;;
29934;SDS011;19905;53.370;-6.314;2023-04-24T03:22:21;16.38;;;7.13;;
29934;SDS011;19905;53.370;-6.314;2023-04-24T03:24:51;16.23;;;6.43;;
29934;SDS011;19905;53.370;-6.314;2023-04-24T03:27:21;19.10;;;7.22;;
29934;SDS011;19905;53.370;-6.314;2023-04-24T03:29:50;22.00;;;6.97;;
29934;SDS011;19905;53.370;-6.314;2023-04-24T03:32:22;16.10;;;7.13;;
29934;SDS011;19905;53.370;-6.314;2023-04-24T03:34:50;18.95;;;6.88;;
29934;SDS011;19905;53.370;-6.314;2023-04-24T03:37:20;17.27;;;7.60;;
29934;SDS011;19905;53.370;-6.314;2023-04-24T03:39:48;16.00;;;7.88;;
29934;SDS011;19905;53.370;-6.314;2023-04-24T03:42:18;17.23;;;7.45;;
29934;SDS011;19905;53.370;-6.314;2023-04-24T03:44:47;16.33;;;7.75;;
29934;SDS011;19905;53.370;-6.314;2023-04-24T03:47:15;17.27;;;7.38;;
29934;SDS011;19905;53.370;-6.314;2023-04-24T03:49:45;17.08;;;7.25;;
29934;SDS011;19905;53.370;-6.314;2023-04-24T03:52:14;18.17;;;7.80;;
29934;SDS011;19905;53.370;-6.314;2023-04-24T03:54:42;20.42;;;7.53;;
29934;SDS011;19905;53.370;-6.314;2023-04-24T03:57:11;19.20;;;7.45;;
29934;SDS011;19905;53.370;-6.314;2023-04-24T03:59:41;15.98;;;7.65;;
29934;SDS011;19905;53.370;-6.314;2023-04-24T04:02:10;20.70;;;8.82;;
29934;SDS011;19905;53.370;-6.314;2023-04-24T04:04:39;20.77;;;8.63;;
29934;SDS011;19905;53.370;-6.314;2023-04-24T04:07:09;17.95;;;8.50;;
29934;SDS011;19905;53.370;-6.314;2023-04-24T04:09:38;19.92;;;8.77;;
29934;SDS011;19905;53.370;-6.314;2023-04-24T04:12:07;22.05;;;8.93;;
29934;SDS011;19905;53.370;-6.314;2023-04-24T04:14:36;19.55;;;9.45;;
29934;SDS011;19905;53.370;-6.314;2023-04-24T04:17:06;28.05;;;9.27;;
29934;SDS011;19905;53.370;-6.314;2023-04-24T04:19:36;18.58;;;9.05;;
29934;SDS011;19905;53.370;-6.314;2023-04-24T04:22:04;17.13;;;9.07;;
29934;SDS011;19905;53.370;-6.314;2023-04-24T04:24:34;20.42;;;8.68;;
29934;SDS011;19905;53.370;-6.314;2023-04-24T04:27:04;17.80;;;8.48;;
29934;SDS011;19905;53.370;-6.314;2023-04-24T04:29:34;18.23;;;7.85;;
29934;SDS011;19905;53.370;-6.314;2023-04-24T04:32:03;15.35;;;7.03;;
29934;SDS011;19905;53.370;-6.314;2023-04-24T04:34:35;15.65;;;4.38;;
29934;SDS011;19905;53.370;-6.314;2023-04-24T04:37:04;13.43;;;2.60;;
29934;SDS011;19905;53.370;-6.314;2023-04-24T04:39:33;9.02;;;2.60;;
29934;SDS011;19905;53.370;-6.314;2023-04-24T04:42:02;13.98;;;2.35;;
29934;SDS011;19905;53.370;-6.314;2023-04-24T04:44:32;14.68;;;2.40;;
29934;SDS011;19905;53.370;-6.314;2023-04-24T04:47:02;5.32;;;2.00;;
29934;SDS011;19905;53.370;-6.314;2023-04-24T04:49:34;6.43;;;2.63;;
29934;SDS011;19905;53.370;-6.314;2023-04-24T04:52:04;11.43;;;4.00;;
29934;SDS011;19905;53.370;-6.314;2023-04-24T04:54:33;15.93;;;4.28;;
29934;SDS011;19905;53.370;-6.314;2023-04-24T04:57:02;13.82;;;4.20;;
29934;SDS011;19905;53.370;-6.314;2023-04-24T04:59:32;19.33;;;4.80;;
29934;SDS011;19905;53.370;-6.314;2023-04-24T05:02:00;30.67;;;4.95;;
29934;SDS011;19905;53.370;-6.314;2023-04-24T05:04:29;21.40;;;4.35;;
29934;SDS011;19905;53.370;-6.314;2023-04-24T05:07:01;19.38;;;4.50;;
29934;SDS011;19905;53.370;-6.314;2023-04-24T05:09:32;17.92;;;5.15;;
29934;SDS011;19905;53.370;-6.314;2023-04-24T05:12:02;22.30;;;5.22;;
29934;SDS011;19905;53.370;-6.314;2023-04-24T05:14:32;21.55;;;4.60;;
29934;SDS011;19905;53.370;-6.314;2023-04-24T05:17:01;21.77;;;4.15;;
29934;SDS011;19905;53.370;-6.314;2023-04-24T05:19:31;24.33;;;4.78;;
29934;SDS011;19905;53.370;-6.314;2023-04-24T05:22:04;32.10;;;5.00;;
29934;SDS011;19905;53.370;-6.314;2023-04-24T05:24:33;18.23;;;4.18;;
29934;SDS011;19905;53.370;-6.314;2023-04-24T05:27:02;31.60;;;4.82;;
29934;SDS011;19905;53.370;-6.314;2023-04-24T05:29:32;25.90;;;4.05;;
29934;SDS011;19905;53.370;-6.314;2023-04-24T05:32:01;21.13;;;4.38;;
29934;SDS011;19905;53.370;-6.314;2023-04-24T05:34:31;24.30;;;4.40;;
29934;SDS011;19905;53.370;-6.314;2023-04-24T05:37:01;24.17;;;4.47;;
29934;SDS011;19905;53.370;-6.314;2023-04-24T05:39:34;18.95;;;4.05;;
29934;SDS011;19905;53.370;-6.314;2023-04-24T05:42:03;24.05;;;4.32;;
29934;SDS011;19905;53.370;-6.314;2023-04-24T05:44:32;23.95;;;4.00;;
29934;SDS011;19905;53.370;-6.314;2023-04-24T05:47:01;22.73;;;3.67;;
29934;SDS011;19905;53.370;-6.314;2023-04-24T05:49:30;18.27;;;3.67;;
29934;SDS011;19905;53.370;-6.314;2023-04-24T05:52:03;19.70;;;4.28;;
29934;SDS011;19905;53.370;-6.314;2023-04-24T05:54:34;16.77;;;3.60;;
29934;SDS011;19905;53.370;-6.314;2023-04-24T05:57:03;16.10;;;3.45;;
29934;SDS011;19905;53.370;-6.314;2023-04-24T05:59:35;16.42;;;3.42;;
29934;SDS011;19905;53.370;-6.314;2023-04-24T06:02:04;15.02;;;3.85;;
29934;SDS011;19905;53.370;-6.314;2023-04-24T06:04:34;18.10;;;3.63;;
29934;SDS011;19905;53.370;-6.314;2023-04-24T06:07:04;18.30;;;3.47;;
29934;SDS011;19905;53.370;-6.314;2023-04-24T06:09:35;15.07;;;3.58;;
29934;SDS011;19905;53.370;-6.314;2023-04-24T06:12:03;23.17;;;3.67;;
29934;SDS011;19905;53.370;-6.314;2023-04-24T06:14:34;20.67;;;3.88;;
29934;SDS011;19905;53.370;-6.314;2023-04-24T06:17:02;14.93;;;4.10;;
29934;SDS011;19905;53.370;-6.314;2023-04-24T06:19:31;17.55;;;3.90;;
29934;SDS011;19905;53.370;-6.314;2023-04-24T06:21:59;17.67;;;4.28;;
29934;SDS011;19905;53.370;-6.314;2023-04-24T06:24:28;16.98;;;4.18;;
29934;SDS011;19905;53.370;-6.314;2023-04-24T06:26:59;13.30;;;4.00;;
29934;SDS011;19905;53.370;-6.314;2023-04-24T06:29:27;11.05;;;3.55;;
29934;SDS011;19905;53.370;-6.314;2023-04-24T06:31:56;11.48;;;3.17;;
29934;SDS011;19905;53.370;-6.314;2023-04-24T06:34:24;12.55;;;3.88;;
29934;SDS011;19905;53.370;-6.314;2023-04-24T06:36:53;15.55;;;3.60;;
29934;SDS011;19905;53.370;-6.314;2023-04-24T06:39:22;17.90;;;3.72;;
29934;SDS011;19905;53.370;-6.314;2023-04-24T06:41:52;14.65;;;3.17;;
29934;SDS011;19905;53.370;-6.314;2023-04-24T06:44:23;12.30;;;3.40;;
29934;SDS011;19905;53.370;-6.314;2023-04-24T06:46:52;8.98;;;3.17;;
29934;SDS011;19905;53.370;-6.314;2023-04-24T06:49:24;11.05;;;2.80;;
29934;SDS011;19905;53.370;-6.314;2023-04-24T06:51:53;10.88;;;2.85;;
29934;SDS011;19905;53.370;-6.314;2023-04-24T06:54:22;10.07;;;2.83;;
29934;SDS011;19905;53.370;-6.314;2023-04-24T06:56:50;10.85;;;2.33;;
29934;SDS011;19905;53.370;-6.314;2023-04-24T06:59:22;8.82;;;2.60;;
29934;SDS011;19905;53.370;-6.314;2023-04-24T07:01:51;9.02;;;2.70;;
29934;SDS011;19905;53.370;-6.314;2023-04-24T07:04:22;8.00;;;2.20;;
29934;SDS011;19905;53.370;-6.314;2023-04-24T07:06:52;7.60;;;2.13;;
29934;SDS011;19905;53.370;-6.314;2023-04-24T07:09:22;6.00;;;2.45;;
29934;SDS011;19905;53.370;-6.314;2023-04-24T07:11:54;7.55;;;2.67;;
29934;SDS011;19905;53.370;-6.314;2023-04-24T07:14:26;9.00;;;2.47;;
29934;SDS011;19905;53.370;-6.314;2023-04-24T07:16:57;10.80;;;2.70;;
29934;SDS011;19905;53.370;-6.314;2023-04-24T07:19:25;14.40;;;2.95;;
29934;SDS011;19905;53.370;-6.314;2023-04-24T07:21:54;9.35;;;2.50;;
29934;SDS011;19905;53.370;-6.314;2023-04-24T07:24:25;10.77;;;2.45;;
29934;SDS011;19905;53.370;-6.314;2023-04-24T07:26:56;8.30;;;2.92;;
29934;SDS011;19905;53.370;-6.314;2023-04-24T07:29:26;11.77;;;3.40;;
29934;SDS011;19905;53.370;-6.314;2023-04-24T07:31:56;12.20;;;3.60;;
29934;SDS011;19905;53.370;-6.314;2023-04-24T07:34:27;13.85;;;3.30;;
29934;SDS011;19905;53.370;-6.314;2023-04-24T07:36:55;13.85;;;3.28;;
29934;SDS011;19905;53.370;-6.314;2023-04-24T07:39:24;12.20;;;2.97;;
29934;SDS011;19905;53.370;-6.314;2023-04-24T07:41:52;11.35;;;2.63;;
29934;SDS011;19905;53.370;-6.314;2023-04-24T07:44:21;3.70;;;2.00;;
29934;SDS011;19905;53.370;-6.314;2023-04-24T07:46:51;11.32;;;2.38;;
29934;SDS011;19905;53.370;-6.314;2023-04-24T07:49:21;7.13;;;2.50;;
29934;SDS011;19905;53.370;-6.314;2023-04-24T07:51:50;10.57;;;2.25;;
29934;SDS011;19905;53.370;-6.314;2023-04-24T07:54:18;12.90;;;2.58;;
29934;SDS011;19905;53.370;-6.314;2023-04-24T07:56:47;10.02;;;2.47;;
29934;SDS011;19905;53.370;-6.314;2023-04-24T07:59:17;6.90;;;2.88;;
29934;SDS011;19905;53.370;-6.314;2023-04-24T08:01:46;18.25;;;2.80;;
29934;SDS011;19905;53.370;-6.314;2023-04-24T08:04:17;9.60;;;2.67;;
29934;SDS011;19905;53.370;-6.314;2023-04-24T08:06:47;11.73;;;2.80;;
29934;SDS011;19905;53.370;-6.314;2023-04-24T08:09:16;14.48;;;3.10;;
29934;SDS011;19905;53.370;-6.314;2023-04-24T08:11:44;12.07;;;2.80;;
29934;SDS011;19905;53.370;-6.314;2023-04-24T08:14:13;15.10;;;2.88;;
29934;SDS011;19905;53.370;-6.314;2023-04-24T08:16:41;11.13;;;2.83;;
29934;SDS011;19905;53.370;-6.314;2023-04-24T08:19:10;15.55;;;2.75;;
29934;SDS011;19905;53.370;-6.314;2023-04-24T08:21:40;12.27;;;2.90;;
29934;SDS011;19905;53.370;-6.314;2023-04-24T08:24:09;16.88;;;3.20;;
29934;SDS011;19905;53.370;-6.314;2023-04-24T08:26:37;11.85;;;3.05;;
29934;SDS011;19905;53.370;-6.314;2023-04-24T08:29:06;16.33;;;2.83;;
29934;SDS011;19905;53.370;-6.314;2023-04-24T08:31:35;13.10;;;3.15;;
29934;SDS011;19905;53.370;-6.314;2023-04-24T08:34:04;11.23;;;2.60;;
29934;SDS011;19905;53.370;-6.314;2023-04-24T08:36:32;9.63;;;2.53;;
29934;SDS011;19905;53.370;-6.314;2023-04-24T08:39:14;12.98;;;2.60;;
29934;SDS011;19905;53.370;-6.314;2023-04-24T08:41:44;10.50;;;2.80;;
29934;SDS011;19905;53.370;-6.314;2023-04-24T08:44:13;13.32;;;2.80;;
29934;SDS011;19905;53.370;-6.314;2023-04-24T08:46:43;14.13;;;2.80;;
29934;SDS011;19905;53.370;-6.314;2023-04-24T08:49:14;16.15;;;2.60;;
29934;SDS011;19905;53.370;-6.314;2023-04-24T08:51:44;13.68;;;2.78;;
29934;SDS011;19905;53.370;-6.314;2023-04-24T08:54:15;18.83;;;3.15;;
29934;SDS011;19905;53.370;-6.314;2023-04-24T08:56:48;12.32;;;3.33;;
29934;SDS011;19905;53.370;-6.314;2023-04-24T08:59:24;14.75;;;3.15;;
29934;SDS011;19905;53.370;-6.314;2023-04-24T09:01:57;10.98;;;2.72;;
29934;SDS011;19905;53.370;-6.314;2023-04-24T09:04:30;14.45;;;2.60;;
29934;SDS011;19905;53.370;-6.314;2023-04-24T09:07:11;10.15;;;1.95;;
29934;SDS011;19905;53.370;-6.314;2023-04-24T09:09:46;7.25;;;2.38;;
29934;SDS011;19905;53.370;-6.314;2023-04-24T09:12:32;9.35;;;2.20;;
29934;SDS011;19905;53.370;-6.314;2023-04-24T09:15:24;10.23;;;2.20;;
29934;SDS011;19905;53.370;-6.314;2023-04-24T09:18:25;8.35;;;2.33;;
29934;SDS011;19905;53.370;-6.314;2023-04-24T09:25:15;6.85;;;2.35;;
29934;SDS011;19905;53.370;-6.314;2023-04-24T09:28:31;9.43;;;2.40;;
29934;SDS011;19905;53.370;-6.314;2023-04-24T09:31:08;10.60;;;2.78;;
29934;SDS011;19905;53.370;-6.314;2023-04-24T09:33:43;14.00;;;3.30;;
29934;SDS011;19905;53.370;-6.314;2023-04-24T09:36:53;7.70;;;3.15;;
29934;SDS011;19905;53.370;-6.314;2023-04-24T09:50:29;11.18;;;3.28;;
29934;SDS011;19905;53.370;-6.314;2023-04-24T09:53:55;7.15;;;2.38;;
29934;SDS011;19905;53.370;-6.314;2023-04-24T10:00:45;10.57;;;3.05;;
29934;SDS011;19905;53.370;-6.314;2023-04-24T10:08:00;11.40;;;2.97;;
29934;SDS011;19905;53.370;-6.314;2023-04-24T10:14:52;11.88;;;2.90;;
29934;SDS011;19905;53.370;-6.314;2023-04-24T10:58:15;7.93;;;1.90;;
29934;SDS011;19905;53.370;-6.314;2023-04-24T11:01:54;12.02;;;2.17;;
29934;SDS011;19905;53.370;-6.314;2023-04-24T11:05:22;15.95;;;2.80;;
29934;SDS011;19905;53.370;-6.314;2023-04-24T11:27:42;10.82;;;2.40;;
29934;SDS011;19905;53.370;-6.314;2023-04-24T11:33:12;17.30;;;2.72;;
29934;SDS011;19905;53.370;-6.314;2023-04-24T11:35:53;9.90;;;2.15;;
29934;SDS011;19905;53.370;-6.314;2023-04-24T11:38:36;10.23;;;2.45;;
29934;SDS011;19905;53.370;-6.314;2023-04-24T11:41:05;11.02;;;2.08;;
29934;SDS011;19905;53.370;-6.314;2023-04-24T11:43:44;8.63;;;2.00;;
29934;SDS011;19905;53.370;-6.314;2023-04-24T11:46:20;7.93;;;2.17;;
29934;SDS011;19905;53.370;-6.314;2023-04-24T11:48:50;8.80;;;2.05;;
29934;SDS011;19905;53.370;-6.314;2023-04-24T11:55:24;10.80;;;2.15;;
29934;SDS011;19905;53.370;-6.314;2023-04-24T11:57:56;9.45;;;2.03;;
29934;SDS011;19905;53.370;-6.314;2023-04-24T12:01:00;11.18;;;2.00;;
29934;SDS011;19905;53.370;-6.314;2023-04-24T12:07:27;11.90;;;2.25;;
29934;SDS011;19905;53.370;-6.314;2023-04-24T12:10:27;10.55;;;2.38;;
29934;SDS011;19905;53.370;-6.314;2023-04-24T12:16:59;11.70;;;2.60;;
29934;SDS011;19905;53.370;-6.314;2023-04-24T12:20:24;16.23;;;2.65;;
29934;SDS011;19905;53.370;-6.314;2023-04-24T12:35:35;8.48;;;2.35;;
29934;SDS011;19905;53.370;-6.314;2023-04-24T12:39:22;12.25;;;2.58;;
29934;SDS011;19905;53.370;-6.314;2023-04-24T13:52:14;11.38;;;3.60;;
29934;SDS011;19905;53.370;-6.314;2023-04-24T13:54:43;8.40;;;2.28;;
29934;SDS011;19905;53.370;-6.314;2023-04-24T14:03:46;10.57;;;2.38;;
29934;SDS011;19905;53.370;-6.314;2023-04-24T14:06:19;9.80;;;2.78;;
29934;SDS011;19905;53.370;-6.314;2023-04-24T14:38:29;8.65;;;2.17;;
29934;SDS011;19905;53.370;-6.314;2023-04-24T14:43:41;9.82;;;1.70;;
29934;SDS011;19905;53.370;-6.314;2023-04-24T14:46:42;9.18;;;1.80;;
29934;SDS011;19905;53.370;-6.314;2023-04-24T15:12:33;6.45;;;1.80;;
29934;SDS011;19905;53.370;-6.314;2023-04-24T15:40:58;9.85;;;3.10;;
29934;SDS011;19905;53.370;-6.314;2023-04-24T15:43:28;9.10;;;2.05;;
29934;SDS011;19905;53.370;-6.314;2023-04-24T15:45:58;10.88;;;2.83;;
29934;SDS011;19905;53.370;-6.314;2023-04-24T15:48:26;8.23;;;2.08;;
29934;SDS011;19905;53.370;-6.314;2023-04-24T15:50:55;7.50;;;1.98;;
29934;SDS011;19905;53.370;-6.314;2023-04-24T15:53:26;8.40;;;3.10;;
29934;SDS011;19905;53.370;-6.314;2023-04-24T15:55:55;6.65;;;2.25;;
29934;SDS011;19905;53.370;-6.314;2023-04-24T15:58:23;5.95;;;2.30;;
29934;SDS011;19905;53.370;-6.314;2023-04-24T16:00:52;6.68;;;1.60;;
29934;SDS011;19905;53.370;-6.314;2023-04-24T16:03:21;11.77;;;2.10;;
29934;SDS011;19905;53.370;-6.314;2023-04-24T16:05:50;7.45;;;2.28;;
29934;SDS011;19905;53.370;-6.314;2023-04-24T16:08:19;6.57;;;2.00;;
29934;SDS011;19905;53.370;-6.314;2023-04-24T16:10:50;6.60;;;2.38;;
29934;SDS011;19905;53.370;-6.314;2023-04-24T16:13:19;10.02;;;2.92;;
29934;SDS011;19905;53.370;-6.314;2023-04-24T16:15:48;10.20;;;2.10;;
29934;SDS011;19905;53.370;-6.314;2023-04-24T16:18:18;11.73;;;2.17;;
29934;SDS011;19905;53.370;-6.314;2023-04-24T16:20:47;5.72;;;2.13;;
29934;SDS011;19905;53.370;-6.314;2023-04-24T16:23:17;8.32;;;1.90;;
29934;SDS011;19905;53.370;-6.314;2023-04-24T16:25:46;6.30;;;1.67;;
29934;SDS011;19905;53.370;-6.314;2023-04-24T16:28:16;6.70;;;2.10;;
29934;SDS011;19905;53.370;-6.314;2023-04-24T16:30:45;6.68;;;1.98;;
29934;SDS011;19905;53.370;-6.314;2023-04-24T16:33:14;4.57;;;1.95;;
29934;SDS011;19905;53.370;-6.314;2023-04-24T16:35:43;8.57;;;2.40;;
29934;SDS011;19905;53.370;-6.314;2023-04-24T16:38:14;7.35;;;2.17;;
29934;SDS011;19905;53.370;-6.314;2023-04-24T16:40:43;5.53;;;2.00;;
29934;SDS011;19905;53.370;-6.314;2023-04-24T16:43:12;5.53;;;2.03;;
29934;SDS011;19905;53.370;-6.314;2023-04-24T16:45:42;6.70;;;2.03;;
29934;SDS011;19905;53.370;-6.314;2023-04-24T16:48:12;7.53;;;2.08;;
29934;SDS011;19905;53.370;-6.314;2023-04-24T16:50:43;6.18;;;1.90;;
29934;SDS011;19905;53.370;-6.314;2023-04-24T16:53:17;6.50;;;1.95;;
29934;SDS011;19905;53.370;-6.314;2023-04-24T16:55:46;6.00;;;1.90;;
29934;SDS011;19905;53.370;-6.314;2023-04-24T16:58:17;9.10;;;2.38;;
29934;SDS011;19905;53.370;-6.314;2023-04-24T17:00:47;6.43;;;2.13;;
29934;SDS011;19905;53.370;-6.314;2023-04-24T17:03:16;8.80;;;2.70;;
29934;SDS011;19905;53.370;-6.314;2023-04-24T17:05:45;9.65;;;2.47;;
29934;SDS011;19905;53.370;-6.314;2023-04-24T17:08:13;8.18;;;2.10;;
29934;SDS011;19905;53.370;-6.314;2023-04-24T17:10:42;7.18;;;1.90;;
29934;SDS011;19905;53.370;-6.314;2023-04-24T17:13:10;8.57;;;2.28;;
29934;SDS011;19905;53.370;-6.314;2023-04-24T17:15:40;7.13;;;1.90;;
29934;SDS011;19905;53.370;-6.314;2023-04-24T17:18:10;7.20;;;1.83;;
29934;SDS011;19905;53.370;-6.314;2023-04-24T17:20:39;6.22;;;1.80;;
29934;SDS011;19905;53.370;-6.314;2023-04-24T17:23:07;7.25;;;1.77;;
29934;SDS011;19905;53.370;-6.314;2023-04-24T17:25:37;5.97;;;1.63;;
29934;SDS011;19905;53.370;-6.314;2023-04-24T17:28:07;8.07;;;2.10;;
29934;SDS011;19905;53.370;-6.314;2023-04-24T17:30:47;7.60;;;2.08;;
29934;SDS011;19905;53.370;-6.314;2023-04-24T17:33:18;4.53;;;1.95;;
29934;SDS011;19905;53.370;-6.314;2023-04-24T17:35:46;5.85;;;1.60;;
29934;SDS011;19905;53.370;-6.314;2023-04-24T17:38:16;4.55;;;1.80;;
29934;SDS011;19905;53.370;-6.314;2023-04-24T17:40:45;9.27;;;2.15;;
29934;SDS011;19905;53.370;-6.314;2023-04-24T17:43:14;7.03;;;3.25;;
29934;SDS011;19905;53.370;-6.314;2023-04-24T17:45:44;7.38;;;2.47;;
29934;SDS011;19905;53.370;-6.314;2023-04-24T17:48:13;7.47;;;3.00;;
29934;SDS011;19905;53.370;-6.314;2023-04-24T17:50:43;8.82;;;3.55;;
29934;SDS011;19905;53.370;-6.314;2023-04-24T17:53:12;8.27;;;3.05;;
29934;SDS011;19905;53.370;-6.314;2023-04-24T17:55:41;7.45;;;3.20;;
29934;SDS011;19905;53.370;-6.314;2023-04-24T17:58:10;7.25;;;2.10;;
29934;SDS011;19905;53.370;-6.314;2023-04-24T18:00:39;4.00;;;2.00;;
29934;SDS011;19905;53.370;-6.314;2023-04-24T18:03:08;11.13;;;4.80;;
29934;SDS011;19905;53.370;-6.314;2023-04-24T18:05:37;6.60;;;2.75;;
29934;SDS011;19905;53.370;-6.314;2023-04-24T18:08:08;8.85;;;2.45;;
29934;SDS011;19905;53.370;-6.314;2023-04-24T18:10:37;6.93;;;1.95;;
29934;SDS011;19905;53.370;-6.314;2023-04-24T18:13:05;6.40;;;1.75;;
29934;SDS011;19905;53.370;-6.314;2023-04-24T18:15:35;5.57;;;1.60;;
29934;SDS011;19905;53.370;-6.314;2023-04-24T18:18:07;7.72;;;2.10;;
29934;SDS011;19905;53.370;-6.314;2023-04-24T18:20:36;6.15;;;2.03;;
29934;SDS011;19905;53.370;-6.314;2023-04-24T18:23:05;4.72;;;1.92;;
29934;SDS011;19905;53.370;-6.314;2023-04-24T18:25:35;5.43;;;1.90;;
29934;SDS011;19905;53.370;-6.314;2023-04-24T18:28:03;7.13;;;1.95;;
29934;SDS011;19905;53.370;-6.314;2023-04-24T18:30:32;6.47;;;2.00;;
29934;SDS011;19905;53.370;-6.314;2023-04-24T18:33:00;6.22;;;2.25;;
29934;SDS011;19905;53.370;-6.314;2023-04-24T18:35:29;7.03;;;2.38;;
29934;SDS011;19905;53.370;-6.314;2023-04-24T18:37:58;6.32;;;2.00;;
29934;SDS011;19905;53.370;-6.314;2023-04-24T18:40:27;6.97;;;1.95;;
29934;SDS011;19905;53.370;-6.314;2023-04-24T18:42:58;9.10;;;1.77;;
29934;SDS011;19905;53.370;-6.314;2023-04-24T18:45:26;7.57;;;2.05;;
29934;SDS011;19905;53.370;-6.314;2023-04-24T18:47:55;7.22;;;2.10;;
29934;SDS011;19905;53.370;-6.314;2023-04-24T18:50:25;7.63;;;2.28;;
29934;SDS011;19905;53.370;-6.314;2023-04-24T18:52:57;6.68;;;2.10;;
29934;SDS011;19905;53.370;-6.314;2023-04-24T18:55:26;6.80;;;2.10;;
29934;SDS011;19905;53.370;-6.314;2023-04-24T18:57:54;9.43;;;2.70;;
29934;SDS011;19905;53.370;-6.314;2023-04-24T19:00:24;5.45;;;2.22;;
29934;SDS011;19905;53.370;-6.314;2023-04-24T19:02:53;8.48;;;3.13;;
29934;SDS011;19905;53.370;-6.314;2023-04-24T19:05:23;7.82;;;2.72;;
29934;SDS011;19905;53.370;-6.314;2023-04-24T19:07:52;6.63;;;2.10;;
29934;SDS011;19905;53.370;-6.314;2023-04-24T19:10:21;9.45;;;3.22;;
29934;SDS011;19905;53.370;-6.314;2023-04-24T19:12:49;6.18;;;3.10;;
29934;SDS011;19905;53.370;-6.314;2023-04-24T19:15:22;6.65;;;3.78;;
29934;SDS011;19905;53.370;-6.314;2023-04-24T19:17:52;9.90;;;4.97;;
29934;SDS011;19905;53.370;-6.314;2023-04-24T19:20:27;9.10;;;3.40;;
29934;SDS011;19905;53.370;-6.314;2023-04-24T19:22:57;10.45;;;4.05;;
29934;SDS011;19905;53.370;-6.314;2023-04-24T19:25:25;7.53;;;3.47;;
29934;SDS011;19905;53.370;-6.314;2023-04-24T19:27:55;9.23;;;3.13;;
29934;SDS011;19905;53.370;-6.314;2023-04-24T19:30:24;8.23;;;2.58;;
29934;SDS011;19905;53.370;-6.314;2023-04-24T19:32:55;9.15;;;3.67;;
29934;SDS011;19905;53.370;-6.314;2023-04-24T19:35:24;11.80;;;5.93;;
29934;SDS011;19905;53.370;-6.314;2023-04-24T19:37:54;11.57;;;7.07;;